createdAt,value
2019-04-05T00:01:51.765Z,10.20
2019-04-05T00:04:20.156Z,9.83
2019-04-05T00:06:48.447Z,10.63
2019-04-05T00:09:17.215Z,12.33
2019-04-05T00:11:45.500Z,11.60
2019-04-05T00:14:13.851Z,11.97
2019-04-05T00:16:42.342Z,11.73
2019-04-05T00:19:10.809Z,11.57
2019-04-05T00:21:39.104Z,10.20
2019-04-05T00:24:07.629Z,13.80
2019-04-05T00:26:35.938Z,13.70
2019-04-05T00:29:04.322Z,14.90
2019-04-05T00:31:32.684Z,12.00
2019-04-05T00:34:01.128Z,10.53
2019-04-05T00:36:29.682Z,11.73
2019-04-05T00:38:58.029Z,13.00
2019-04-05T00:41:26.328Z,12.60
2019-04-05T00:43:54.623Z,12.00
2019-04-05T00:46:23.072Z,12.37
2019-04-05T00:48:51.516Z,12.80
2019-04-05T00:51:19.883Z,12.73
2019-04-05T00:53:48.315Z,12.10
2019-04-05T00:56:16.650Z,12.33
2019-04-05T00:58:44.998Z,12.90
2019-04-05T01:01:13.606Z,11.90
2019-04-05T01:03:41.963Z,12.13
2019-04-05T01:06:10.444Z,13.57
2019-04-05T01:08:38.822Z,12.77
2019-04-05T01:11:10.153Z,10.50
2019-04-05T01:13:38.510Z,12.87
2019-04-05T01:16:06.930Z,11.67
2019-04-05T01:18:35.305Z,13.43
2019-04-05T01:21:04.671Z,12.70
2019-04-05T01:23:33.163Z,12.10
2019-04-05T01:26:02.011Z,11.23
2019-04-05T01:28:30.466Z,12.93
2019-04-05T01:30:58.867Z,15.00
2019-04-05T01:33:27.344Z,12.97
2019-04-05T01:35:55.690Z,13.23
2019-04-05T01:38:24.044Z,14.00
2019-04-05T01:40:52.943Z,11.90
2019-04-05T01:43:22.070Z,14.53
2019-04-05T01:45:53.876Z,11.87
2019-04-05T01:48:20.883Z,12.10
2019-04-05T01:50:49.170Z,12.97
2019-04-05T01:53:18.028Z,12.27
2019-04-05T01:55:46.329Z,12.50
2019-04-05T01:58:14.633Z,10.43
2019-04-05T02:00:43.105Z,11.77
2019-04-05T02:03:11.507Z,12.90
2019-04-05T02:05:39.900Z,11.53
2019-04-05T02:08:08.273Z,11.60
2019-04-05T02:10:36.634Z,11.17
2019-04-05T02:13:05.090Z,10.93
2019-04-05T02:15:34.247Z,13.40
2019-04-05T02:18:04.279Z,11.00
2019-04-05T02:20:32.717Z,11.00
2019-04-05T02:23:01.163Z,10.97
2019-04-05T02:25:29.536Z,12.30
2019-04-05T02:27:57.931Z,10.43
2019-04-05T02:30:27.189Z,9.73
2019-04-05T02:32:55.576Z,10.70
2019-04-05T02:35:23.975Z,11.10
2019-04-05T02:37:52.350Z,10.93
2019-04-05T02:40:21.048Z,10.13
2019-04-05T02:42:50.986Z,11.30
2019-04-05T02:45:19.842Z,10.30
2019-04-05T02:47:53.924Z,9.70
2019-04-05T02:50:25.307Z,12.53
2019-04-05T02:52:55.414Z,9.90
2019-04-05T02:55:24.524Z,10.83
2019-04-05T02:57:53.098Z,11.37
2019-04-05T03:00:21.563Z,9.60
2019-04-05T03:02:50.631Z,9.27
2019-04-05T03:05:19.880Z,9.80
2019-04-05T03:07:48.445Z,11.33
2019-04-05T03:10:54.802Z,9.27
2019-04-05T03:13:27.765Z,8.90
2019-04-05T03:15:58.487Z,10.37
2019-04-05T03:18:28.256Z,11.03
2019-04-05T03:20:59.734Z,11.90
2019-04-05T03:23:28.480Z,9.73
2019-04-05T03:25:58.739Z,19.40
2019-04-05T03:28:27.315Z,10.20
2019-04-05T03:30:56.192Z,10.70
2019-04-05T03:33:24.653Z,9.33
2019-04-05T03:35:53.046Z,14.13
2019-04-05T03:38:21.479Z,10.13
2019-04-05T03:40:50.183Z,9.80
2019-04-05T03:43:18.641Z,9.87
2019-04-05T03:45:47.538Z,10.13
2019-04-05T03:48:15.912Z,10.77
2019-04-05T03:50:45.236Z,9.40
2019-04-05T03:53:13.877Z,11.57
2019-04-05T03:55:42.210Z,11.90
2019-04-05T03:58:10.643Z,10.37
2019-04-05T04:00:39.251Z,9.70
2019-04-05T04:03:07.769Z,9.83
2019-04-05T04:05:36.226Z,14.10
2019-04-05T04:08:04.637Z,10.63
2019-04-05T04:10:33.066Z,11.90
2019-04-05T04:13:01.447Z,10.93
2019-04-05T04:15:29.889Z,10.03
2019-04-05T04:17:58.287Z,9.80
2019-04-05T04:20:38.917Z,11.00
2019-04-05T04:23:08.366Z,11.37
2019-04-05T04:25:37.797Z,9.40
2019-04-05T04:28:06.576Z,10.47
2019-04-05T04:30:35.600Z,12.57
2019-04-05T04:33:04.665Z,11.10
2019-04-05T04:35:33.312Z,12.57
2019-04-05T04:38:01.711Z,12.87
2019-04-05T04:40:30.594Z,13.40
2019-04-05T04:42:59.004Z,13.13
2019-04-05T04:45:27.362Z,11.77
2019-04-05T04:47:55.828Z,12.87
2019-04-05T04:50:24.657Z,11.00
2019-04-05T04:52:53.133Z,14.20
2019-04-05T04:55:21.668Z,12.57
2019-04-05T04:57:50.246Z,12.90
2019-04-05T05:00:18.691Z,13.23
2019-04-05T05:02:47.339Z,12.90
2019-04-05T05:05:16.950Z,11.87
2019-04-05T05:07:45.361Z,13.27
2019-04-05T05:10:13.862Z,11.27
2019-04-05T05:12:42.287Z,11.10
2019-04-05T05:15:11.194Z,12.10
2019-04-05T05:17:39.595Z,12.73
2019-04-05T05:20:08.733Z,11.77
2019-04-05T05:22:37.125Z,9.97
2019-04-05T05:25:07.961Z,11.63
2019-04-05T05:27:36.552Z,13.10
2019-04-05T05:30:08.009Z,10.83
2019-04-05T05:32:36.471Z,11.50
2019-04-05T05:35:06.531Z,12.60
2019-04-05T05:37:35.123Z,10.30
2019-04-05T05:40:05.211Z,10.07
2019-04-05T05:42:33.624Z,10.70
2019-04-05T05:45:01.932Z,11.60
2019-04-05T05:47:30.238Z,11.03
2019-04-05T05:49:58.548Z,9.87
2019-04-05T05:52:27.320Z,12.57
2019-04-05T05:54:55.825Z,13.00
2019-04-05T05:57:24.116Z,11.10
2019-04-05T05:59:52.456Z,12.10
2019-04-05T06:02:20.907Z,12.80
2019-04-05T06:04:49.221Z,12.87
2019-04-05T06:07:20.041Z,15.17
2019-04-05T06:09:47.890Z,13.93
2019-04-05T06:12:16.169Z,12.77
2019-04-05T06:14:44.549Z,15.13
2019-04-05T06:17:13.039Z,12.00
2019-04-05T06:19:41.429Z,12.17
2019-04-05T06:22:09.791Z,13.00
2019-04-05T06:24:38.104Z,17.67
2019-04-05T06:27:06.592Z,13.90
2019-04-05T06:29:35.002Z,13.87
2019-04-05T06:32:03.388Z,11.60
2019-04-05T06:34:31.690Z,13.53
2019-04-05T06:36:59.995Z,12.63
2019-04-05T06:39:28.301Z,14.07
2019-04-05T06:41:56.650Z,15.90
2019-04-05T06:44:27.854Z,13.40
2019-04-05T06:46:55.089Z,16.13
2019-04-05T06:49:23.393Z,13.90
2019-04-05T06:51:52.090Z,15.20
2019-04-05T06:54:20.416Z,15.90
2019-04-05T06:56:48.733Z,16.30
2019-04-05T06:59:19.312Z,16.60
2019-04-05T07:01:47.166Z,16.47
2019-04-05T07:04:15.614Z,15.50
2019-04-05T07:06:43.948Z,22.20
2019-04-05T07:09:12.319Z,15.83
2019-04-05T07:11:40.669Z,16.10
2019-04-05T07:14:09.163Z,18.90
2019-04-05T07:16:37.501Z,18.57
2019-04-05T07:19:05.940Z,20.00
2019-04-05T07:21:34.348Z,21.50
2019-04-05T07:24:02.733Z,22.80
2019-04-05T07:26:31.205Z,23.00
2019-04-05T07:28:59.510Z,19.10
2019-04-05T07:31:27.894Z,20.53
2019-04-05T07:33:56.461Z,23.73
2019-04-05T07:36:24.811Z,19.37
2019-04-05T07:38:53.172Z,23.87
2019-04-05T07:41:21.601Z,23.43
2019-04-05T07:43:49.928Z,23.43
2019-04-05T07:46:18.255Z,25.20
2019-04-05T07:48:46.650Z,20.70
2019-04-05T07:51:15.051Z,23.90
2019-04-05T07:53:43.387Z,22.47
2019-04-05T07:56:11.841Z,22.13
2019-04-05T07:58:40.186Z,23.30
2019-04-05T08:01:08.561Z,24.43
2019-04-05T08:03:37.039Z,26.20
2019-04-05T08:06:05.499Z,25.83
2019-04-05T08:08:57.703Z,24.87
2019-04-05T08:11:27.039Z,23.13
2019-04-05T08:13:56.127Z,26.07
2019-04-05T08:16:24.482Z,22.20
2019-04-05T08:18:58.194Z,23.90
2019-04-05T08:21:23.029Z,23.13
2019-04-05T08:23:51.518Z,24.00
2019-04-05T08:26:19.885Z,25.90
2019-04-05T08:28:48.291Z,25.77
2019-04-05T08:31:16.576Z,24.70
2019-04-05T08:33:44.914Z,23.37
2019-04-05T08:36:13.276Z,26.57
2019-04-05T08:38:41.569Z,25.27
2019-04-05T08:41:09.956Z,30.07
2019-04-05T08:43:38.455Z,28.33
2019-04-05T08:46:06.775Z,30.07
2019-04-05T08:48:35.073Z,28.73
2019-04-05T08:51:03.555Z,29.03
2019-04-05T08:53:31.930Z,27.97
2019-04-05T08:56:00.296Z,26.63
2019-04-05T08:58:33.581Z,29.60
2019-04-05T09:00:58.692Z,28.17
2019-04-05T09:03:26.992Z,29.03
2019-04-05T09:05:55.366Z,28.20
2019-04-05T09:08:23.708Z,31.27
2019-04-05T09:10:54.564Z,31.30
2019-04-05T09:13:23.366Z,27.67
2019-04-05T09:15:51.772Z,31.73
2019-04-05T09:18:20.062Z,30.43
2019-04-05T09:20:48.391Z,34.90
2019-04-05T09:23:16.825Z,29.90
2019-04-05T09:25:45.215Z,32.63
2019-04-05T09:28:13.734Z,29.30
2019-04-05T09:30:43.674Z,28.37
2019-04-05T09:33:11.964Z,25.03
2019-04-05T09:35:40.291Z,27.97
2019-04-05T09:38:08.676Z,25.83
2019-04-05T09:40:37.256Z,25.53
2019-04-05T09:43:05.761Z,27.40
2019-04-05T09:45:34.057Z,29.23
2019-04-05T09:48:02.483Z,26.63
2019-04-05T09:50:30.905Z,22.77
2019-04-05T09:52:59.369Z,31.57
2019-04-05T09:55:27.666Z,29.20
2019-04-05T09:57:56.761Z,31.00
2019-04-05T10:00:28.375Z,30.10
2019-04-05T10:02:56.702Z,30.90
2019-04-05T10:05:25.066Z,31.20
2019-04-05T10:07:55.082Z,28.30
2019-04-05T10:10:23.424Z,30.30
2019-04-05T10:12:51.920Z,33.13
2019-04-05T10:15:21.724Z,33.20
2019-04-05T10:17:50.690Z,31.23
2019-04-05T10:20:19.065Z,33.17
2019-04-05T10:22:47.388Z,29.10
2019-04-05T10:25:16.035Z,28.70
2019-04-05T10:27:44.434Z,25.97
2019-04-05T10:30:13.468Z,24.97
2019-04-05T10:32:41.785Z,23.57
2019-04-05T10:35:10.310Z,24.60
2019-04-05T10:37:38.641Z,27.87
2019-04-05T10:40:07.803Z,24.83
2019-04-05T10:42:37.181Z,27.33
2019-04-05T10:45:12.299Z,23.40
2019-04-05T10:47:40.654Z,24.17
2019-04-05T10:50:11.091Z,24.37
2019-04-05T10:52:39.544Z,22.07
2019-04-05T10:55:08.203Z,19.87
2019-04-05T10:57:36.865Z,19.83
2019-04-05T11:00:14.669Z,17.00
2019-04-05T11:02:42.987Z,16.70
2019-04-05T11:05:12.365Z,17.23
2019-04-05T11:07:40.868Z,17.80
2019-04-05T11:10:09.478Z,13.77
2019-04-05T11:12:38.047Z,15.70
2019-04-05T11:15:06.976Z,17.60
2019-04-05T11:17:35.546Z,15.37
2019-04-05T11:20:14.924Z,16.00
2019-04-05T11:22:37.121Z,19.10
2019-04-05T11:25:07.871Z,15.07
2019-04-05T11:27:36.499Z,17.77
2019-04-05T11:30:08.845Z,18.67
2019-04-05T11:32:37.296Z,17.00
2019-04-05T11:35:09.206Z,17.97
2019-04-05T11:37:39.643Z,19.20
2019-04-05T11:40:10.750Z,22.23
2019-04-05T11:42:41.607Z,16.03
2019-04-05T11:45:10.293Z,18.40
2019-04-05T11:47:39.042Z,25.77
2019-04-05T11:50:12.784Z,18.67
2019-04-05T11:52:41.239Z,21.10
2019-04-05T11:55:09.809Z,18.63
2019-04-05T11:57:40.869Z,20.07
2019-04-05T12:00:14.869Z,19.30
2019-04-05T12:02:47.722Z,14.30
2019-04-05T12:05:17.635Z,14.63
2019-04-05T12:07:45.994Z,17.30
2019-04-05T12:10:14.460Z,22.53
2019-04-05T12:12:42.894Z,18.03
2019-04-05T12:15:11.470Z,17.77
2019-04-05T12:17:39.930Z,14.73
2019-04-05T12:20:09.807Z,20.17
2019-04-05T12:22:38.267Z,18.90
2019-04-05T12:25:09.788Z,17.03
2019-04-05T12:27:38.306Z,15.90
2019-04-05T12:30:08.153Z,19.83
2019-04-05T12:32:41.255Z,16.70
2019-04-05T12:35:08.436Z,17.37
2019-04-05T12:37:49.444Z,17.80
2019-04-05T12:40:09.998Z,15.63
2019-04-05T12:42:37.619Z,16.63
2019-04-05T12:45:07.458Z,16.50
2019-04-05T12:47:35.811Z,15.93
2019-04-05T12:50:05.580Z,13.90
2019-04-05T12:52:33.932Z,17.60
2019-04-05T12:55:02.367Z,18.17
2019-04-05T12:57:30.764Z,16.87
2019-04-05T12:59:59.140Z,16.33
2019-04-05T13:02:33.482Z,20.13
2019-04-05T13:04:57.698Z,15.97
2019-04-05T13:07:26.189Z,16.47
2019-04-05T13:09:55.268Z,17.20
2019-04-05T13:12:26.272Z,17.63
2019-04-05T13:14:59.591Z,18.60
2019-04-05T13:17:24.033Z,18.40
2019-04-05T13:19:52.337Z,16.97
2019-04-05T13:22:22.816Z,15.97
2019-04-05T13:24:50.809Z,15.97
2019-04-05T13:27:19.123Z,18.57
2019-04-05T13:29:49.171Z,15.03
2019-04-05T13:32:21.568Z,17.00
2019-04-05T13:34:47.690Z,14.90
2019-04-05T13:37:20.593Z,17.93
2019-04-05T13:39:46.304Z,17.53
2019-04-05T13:42:14.627Z,15.97
2019-04-05T13:44:42.958Z,17.97
2019-04-05T13:47:11.463Z,16.77
2019-04-05T13:49:40.646Z,20.00
2019-04-05T13:52:11.535Z,19.53
2019-04-05T13:54:40.375Z,18.10
2019-04-05T13:57:11.412Z,17.50
2019-04-05T13:59:39.678Z,16.87
2019-04-05T14:02:08.642Z,18.17
2019-04-05T14:04:37.148Z,18.10
2019-04-05T14:07:07.178Z,19.33
2019-04-05T14:09:35.607Z,16.80
2019-04-05T14:12:04.769Z,15.40
2019-04-05T14:14:33.247Z,16.50
2019-04-05T14:17:01.663Z,19.70
2019-04-05T14:19:30.112Z,15.73
2019-04-05T14:22:08.235Z,17.67
2019-04-05T14:24:28.781Z,19.47
2019-04-05T14:26:57.233Z,19.40
2019-04-05T14:29:25.747Z,19.70
2019-04-05T14:31:54.953Z,17.50
2019-04-05T14:34:24.875Z,17.40
2019-04-05T14:36:53.276Z,15.30
2019-04-05T14:39:21.855Z,16.37
2019-04-05T14:41:50.221Z,17.27
2019-04-05T14:44:18.615Z,16.57
2019-04-05T14:46:50.641Z,16.63
2019-04-05T14:49:19.816Z,17.70
2019-04-05T14:51:53.860Z,18.20
2019-04-05T14:54:18.700Z,15.80
2019-04-05T14:56:47.346Z,18.80
2019-04-05T14:59:16.002Z,18.67
2019-04-05T15:01:47.160Z,16.73
2019-04-05T15:04:16.066Z,18.13
2019-04-05T15:06:44.873Z,15.50
2019-04-05T15:09:13.487Z,17.30
2019-04-05T15:11:42.075Z,17.37
2019-04-05T15:14:10.717Z,18.17
2019-04-05T15:16:39.127Z,16.23
2019-04-05T15:19:07.886Z,16.10
2019-04-05T15:21:38.829Z,15.60
2019-04-05T15:24:08.819Z,15.77
2019-04-05T15:26:37.225Z,15.47
2019-04-05T15:29:05.653Z,16.90
2019-04-05T15:31:34.157Z,18.70
2019-04-05T15:34:02.708Z,15.03
2019-04-05T15:36:31.549Z,17.00
2019-04-05T15:39:01.597Z,15.13
2019-04-05T15:41:30.552Z,17.37
2019-04-05T15:43:59.202Z,14.97
2019-04-05T15:46:27.687Z,14.10
2019-04-05T15:48:56.193Z,16.23
2019-04-05T15:51:24.984Z,18.87
2019-04-05T15:53:53.487Z,17.77
2019-04-05T15:56:21.911Z,13.13
2019-04-05T15:58:52.382Z,13.80
2019-04-05T16:01:20.714Z,15.10
2019-04-05T16:03:49.482Z,13.80
2019-04-05T16:06:18.006Z,15.20
2019-04-05T16:08:46.631Z,15.87
2019-04-05T16:11:15.095Z,13.67
2019-04-05T16:13:43.652Z,15.33
2019-04-05T16:16:12.245Z,16.30
2019-04-05T16:18:40.739Z,15.17
2019-04-05T16:21:09.307Z,15.27
2019-04-05T16:23:37.869Z,16.30
2019-04-05T16:26:06.313Z,14.77
2019-04-05T16:28:34.840Z,20.13
2019-04-05T16:31:03.303Z,17.37
2019-04-05T16:33:31.751Z,16.27
2019-04-05T16:36:00.345Z,15.33
2019-04-05T16:38:29.028Z,15.70
2019-04-05T16:40:57.732Z,14.10
2019-04-05T16:43:26.511Z,19.17
2019-04-05T16:45:56.788Z,15.80
2019-04-05T16:48:26.733Z,13.90
2019-04-05T16:50:59.281Z,14.57
2019-04-05T16:53:30.556Z,16.50
2019-04-05T16:55:59.649Z,18.43
2019-04-05T16:58:29.518Z,13.83
2019-04-05T17:00:59.979Z,15.03
2019-04-05T17:03:31.391Z,15.30
2019-04-05T17:06:03.014Z,16.23
2019-04-05T17:08:33.376Z,13.20
2019-04-05T17:11:03.952Z,15.70
2019-04-05T17:13:34.252Z,16.00
2019-04-05T17:16:04.632Z,17.07
2019-04-05T17:18:36.211Z,15.57
2019-04-05T17:21:06.753Z,16.43
2019-04-05T17:23:37.251Z,16.20
2019-04-05T17:26:07.737Z,13.37
2019-04-05T17:28:37.699Z,14.40
2019-04-05T17:31:08.016Z,15.40
2019-04-05T17:33:38.470Z,16.70
2019-04-05T17:36:08.760Z,22.00
2019-04-05T17:38:37.845Z,16.93
2019-04-05T17:41:08.214Z,19.13
2019-04-05T17:43:38.362Z,18.97
2019-04-05T17:46:08.747Z,20.57
2019-04-05T17:48:38.861Z,20.90
2019-04-05T17:51:07.442Z,17.33
2019-04-05T17:53:37.749Z,20.63
2019-04-05T17:56:12.049Z,17.97
2019-04-05T17:58:41.849Z,17.60
2019-04-05T18:01:11.942Z,23.60
2019-04-05T18:03:42.107Z,19.83
2019-04-05T18:06:11.118Z,21.43
2019-04-05T18:08:39.863Z,21.00
2019-04-05T18:11:08.531Z,24.30
2019-04-05T18:13:37.140Z,21.33
2019-04-05T18:16:08.409Z,20.47
2019-04-05T18:18:36.755Z,21.37
2019-04-05T18:21:05.427Z,26.17
2019-04-05T18:23:33.904Z,23.73
2019-04-05T18:26:02.335Z,19.60
2019-04-05T18:28:30.949Z,23.70
2019-04-05T18:30:59.264Z,21.63
2019-04-05T18:33:27.745Z,22.27
2019-04-05T18:35:56.213Z,19.57
2019-04-05T18:38:24.589Z,22.40
2019-04-05T18:40:53.227Z,19.20
2019-04-05T18:43:21.852Z,15.17
2019-04-05T18:45:50.405Z,17.87
2019-04-05T18:48:18.797Z,18.37
2019-04-05T18:50:48.699Z,16.67
2019-04-05T18:53:17.381Z,17.13
2019-04-05T18:55:45.774Z,20.03
2019-04-05T18:58:14.112Z,18.43
2019-04-05T19:00:42.756Z,17.40
2019-04-05T19:03:11.168Z,19.37
2019-04-05T19:05:39.519Z,21.07
2019-04-05T19:08:07.936Z,22.33
2019-04-05T19:10:37.552Z,24.23
2019-04-05T19:13:06.184Z,18.83
2019-04-05T19:15:34.672Z,19.73
2019-04-05T19:18:03.074Z,19.97
2019-04-05T19:20:31.687Z,18.67
2019-04-05T19:23:00.356Z,20.10
2019-04-05T19:25:28.773Z,20.90
2019-04-05T19:27:57.398Z,17.77
2019-04-05T19:50:27.525Z,21.30
2019-04-05T19:52:55.957Z,19.67
2019-04-05T19:55:24.302Z,20.10
2019-04-05T19:57:52.814Z,20.77
2019-04-05T20:00:21.273Z,23.03
2019-04-05T20:02:49.670Z,23.90
2019-04-05T20:05:18.072Z,20.00
2019-04-05T20:07:46.494Z,21.27
2019-04-05T20:10:15.197Z,18.13
2019-04-05T20:12:43.671Z,19.27
2019-04-05T20:15:13.168Z,20.13
2019-04-05T20:17:41.446Z,19.83
2019-04-05T20:20:09.987Z,19.13
2019-04-05T20:22:38.428Z,20.00
2019-04-05T20:25:07.116Z,23.23
2019-04-05T20:27:35.519Z,22.60
2019-04-05T20:30:08.394Z,21.60
2019-04-05T20:32:36.787Z,23.73
2019-04-05T20:35:05.842Z,22.17
2019-04-05T20:37:34.237Z,22.90
2019-04-05T20:40:02.711Z,21.30
2019-04-05T20:42:31.156Z,26.33
2019-04-05T20:44:59.891Z,25.50
2019-04-05T20:47:28.423Z,24.70
2019-04-05T20:49:57.960Z,25.83
2019-04-05T20:52:26.395Z,25.40
2019-04-05T20:54:54.816Z,25.80
2019-04-05T20:57:23.140Z,26.23
2019-04-05T20:59:51.676Z,24.07
2019-04-05T21:02:20.169Z,23.00
2019-04-05T21:04:48.771Z,24.37
2019-04-05T21:07:17.292Z,23.97
2019-04-05T21:09:46.065Z,23.87
2019-04-05T21:12:14.693Z,24.40
2019-04-05T21:14:44.700Z,25.30
2019-04-05T21:17:13.307Z,19.47
2019-04-05T21:19:42.087Z,28.43
2019-04-05T21:22:10.481Z,25.00
2019-04-05T21:24:38.926Z,26.13
2019-04-05T21:27:07.417Z,24.23
2019-04-05T21:29:35.764Z,24.47
2019-04-05T21:32:04.085Z,23.83
2019-04-05T21:34:32.588Z,23.07
2019-04-05T21:37:00.905Z,23.53
2019-04-05T21:39:29.463Z,23.00
2019-04-05T21:41:57.797Z,27.50
2019-04-05T21:44:26.209Z,26.23
2019-04-05T21:46:54.608Z,26.70
2019-04-05T21:49:23.045Z,27.70
2019-04-05T21:51:51.409Z,28.23
2019-04-05T21:54:19.905Z,28.20
2019-04-05T21:56:48.213Z,24.93
2019-04-05T21:59:16.624Z,28.30
2019-04-05T22:01:44.903Z,22.73
2019-04-05T22:04:13.399Z,28.97
2019-04-05T22:06:41.713Z,25.77
2019-04-05T22:09:10.562Z,26.63
2019-04-05T22:11:38.978Z,25.20
2019-04-05T22:14:08.806Z,21.60
2019-04-05T22:16:37.244Z,29.60
2019-04-05T22:19:05.622Z,26.70
2019-04-05T22:21:34.146Z,25.90
2019-04-05T22:24:02.459Z,27.07
2019-04-05T22:26:30.871Z,26.30
2019-04-05T22:28:59.247Z,27.63
2019-04-05T22:31:27.723Z,22.47
2019-04-05T22:33:56.134Z,26.40
2019-04-05T22:36:24.584Z,29.33
2019-04-05T22:38:52.918Z,22.67
2019-04-05T22:41:21.268Z,24.03
2019-04-05T22:43:49.793Z,26.30
2019-04-05T22:46:18.281Z,25.63
2019-04-05T22:48:46.656Z,26.97
2019-04-05T22:51:15.049Z,23.97
2019-04-05T22:53:43.432Z,25.60
2019-04-05T22:56:11.771Z,26.97
2019-04-05T22:58:40.231Z,24.77
2019-04-05T23:01:10.194Z,23.27
2019-04-05T23:03:38.520Z,25.27
2019-04-05T23:06:07.050Z,24.97
2019-04-05T23:08:35.386Z,29.20
2019-04-05T23:11:03.903Z,33.90
2019-04-05T23:13:32.339Z,28.40
2019-04-05T23:16:00.747Z,29.17
2019-04-05T23:18:29.129Z,30.27
2019-04-05T23:20:57.506Z,36.60
2019-04-05T23:23:25.910Z,45.60
2019-04-05T23:25:54.338Z,40.07
2019-04-05T23:28:22.665Z,46.67
2019-04-05T23:30:50.960Z,46.70
2019-04-05T23:33:19.402Z,47.70
2019-04-05T23:35:47.786Z,45.67
2019-04-05T23:38:16.187Z,43.43
2019-04-05T23:40:44.496Z,39.40
2019-04-05T23:43:13.272Z,33.37
2019-04-05T23:45:41.712Z,34.97
2019-04-05T23:48:10.174Z,30.03
2019-04-05T23:50:38.495Z,25.80
2019-04-05T23:53:06.819Z,28.53
2019-04-05T23:55:35.296Z,29.83
2019-04-05T23:58:03.702Z,30.17
